createdAt,value
2022-09-03T00:01:30.223Z,82.50
2022-09-03T00:04:02.929Z,83.10
2022-09-03T00:06:38.339Z,82.90
2022-09-03T00:09:14.669Z,82.90
2022-09-03T00:11:48.132Z,83.30
2022-09-03T00:14:22.466Z,83.60
2022-09-03T00:16:55.400Z,84.00
2022-09-03T00:19:28.405Z,84.70
2022-09-03T00:22:01.629Z,84.60
2022-09-03T00:24:36.651Z,84.70
2022-09-03T00:27:09.147Z,84.70
2022-09-03T00:29:42.673Z,84.90
2022-09-03T00:32:18.557Z,84.90
2022-09-03T00:34:52.124Z,84.90
2022-09-03T00:37:22.191Z,85.00
2022-09-03T00:39:51.985Z,85.80
2022-09-03T00:42:31.993Z,86.00
2022-09-03T00:45:11.739Z,85.90
2022-09-03T00:47:53.710Z,86.00
2022-09-03T00:50:30.350Z,86.20
2022-09-03T00:53:07.136Z,86.90
2022-09-03T00:55:44.957Z,86.80
2022-09-03T00:58:42.267Z,87.30
2022-09-03T01:01:17.795Z,87.60
2022-09-03T01:03:54.502Z,87.70
2022-09-03T01:06:29.518Z,88.20
2022-09-03T01:09:18.581Z,87.80
2022-09-03T01:11:59.829Z,88.30
2022-09-03T01:14:39.079Z,89.20
2022-09-03T01:17:17.748Z,88.70
2022-09-03T01:20:11.064Z,88.70
2022-09-03T01:23:15.074Z,89.20
2022-09-03T01:25:53.566Z,89.30
2022-09-03T01:28:34.907Z,88.70
2022-09-03T01:31:12.562Z,88.80
2022-09-03T01:33:46.239Z,89.00
2022-09-03T01:36:23.541Z,89.00
2022-09-03T01:38:56.413Z,89.70
2022-09-03T01:41:54.761Z,89.40
2022-09-03T01:44:34.689Z,88.90
2022-09-03T01:47:10.055Z,89.60
2022-09-03T01:49:46.675Z,90.20
2022-09-03T01:52:20.640Z,90.20
2022-09-03T01:55:03.714Z,90.10
2022-09-03T01:57:48.530Z,90.30
2022-09-03T02:00:20.484Z,90.20
2022-09-03T02:02:51.703Z,90.20
2022-09-03T02:05:24.927Z,90.30
2022-09-03T02:08:00.215Z,90.10
2022-09-03T02:10:33.243Z,90.20
2022-09-03T02:13:06.298Z,90.20
2022-09-03T02:15:38.546Z,90.50
2022-09-03T02:18:18.125Z,90.40
2022-09-03T02:20:49.048Z,90.40
2022-09-03T02:23:17.845Z,90.40
2022-09-03T02:25:57.194Z,90.40
2022-09-03T02:28:25.837Z,90.50
2022-09-03T02:30:57.029Z,90.70
2022-09-03T02:33:26.205Z,90.80
2022-09-03T02:35:55.249Z,90.80
2022-09-03T02:38:26.520Z,90.90
2022-09-03T02:40:55.545Z,91.00
2022-09-03T02:43:28.714Z,91.20
2022-09-03T02:46:03.628Z,91.10
2022-09-03T02:48:33.056Z,91.10
2022-09-03T02:51:01.435Z,91.30
2022-09-03T02:53:42.848Z,91.30
2022-09-03T02:56:11.785Z,91.30
2022-09-03T02:58:40.061Z,91.30
2022-09-03T03:01:09.776Z,91.20
2022-09-03T03:03:37.926Z,91.40
2022-09-03T03:06:07.849Z,91.70
2022-09-03T03:08:36.097Z,91.40
2022-09-03T03:11:04.445Z,91.40
2022-09-03T03:13:33.278Z,92.10
2022-09-03T03:16:02.859Z,91.80
2022-09-03T03:18:32.551Z,91.90
2022-09-03T03:21:05.887Z,91.80
2022-09-03T03:23:34.566Z,91.80
2022-09-03T03:26:03.618Z,91.70
2022-09-03T03:28:34.497Z,91.70
2022-09-03T03:31:07.657Z,91.60
2022-09-03T03:33:38.047Z,91.60
2022-09-03T03:36:08.150Z,92.00
2022-09-03T03:38:36.667Z,91.90
2022-09-03T03:41:09.208Z,91.90
2022-09-03T03:43:37.581Z,91.70
2022-09-03T03:46:06.327Z,91.70
2022-09-03T03:48:34.961Z,91.60
2022-09-03T03:51:07.509Z,91.80
2022-09-03T03:53:37.753Z,91.70
2022-09-03T03:56:09.742Z,91.70
2022-09-03T03:58:39.230Z,91.80
2022-09-03T04:01:08.640Z,91.80
2022-09-03T04:03:37.278Z,91.60
2022-09-03T04:06:07.897Z,91.80
2022-09-03T04:08:37.388Z,91.80
2022-09-03T04:11:07.502Z,92.00
2022-09-03T04:13:36.978Z,91.90
2022-09-03T04:16:07.009Z,92.00
2022-09-03T04:18:36.350Z,91.90
2022-09-03T04:21:07.761Z,92.00
2022-09-03T04:23:37.364Z,92.00
2022-09-03T04:26:06.470Z,92.20
2022-09-03T04:28:34.989Z,92.20
2022-09-03T04:31:04.344Z,92.20
2022-09-03T04:33:34.405Z,92.10
2022-09-03T04:36:09.828Z,92.00
2022-09-03T04:38:39.637Z,91.90
2022-09-03T04:41:12.243Z,91.80
2022-09-03T04:43:42.422Z,91.90
2022-09-03T04:46:16.316Z,92.00
2022-09-03T04:48:51.291Z,91.90
2022-09-03T04:51:23.357Z,92.20
2022-09-03T04:53:56.671Z,92.50
2022-09-03T04:56:26.983Z,92.60
2022-09-03T04:58:57.802Z,92.70
2022-09-03T05:01:28.104Z,92.80
2022-09-03T05:03:58.209Z,92.80
2022-09-03T05:06:28.953Z,92.90
2022-09-03T05:08:57.678Z,93.00
2022-09-03T05:11:27.344Z,93.00
2022-09-03T05:13:58.175Z,93.20
2022-09-03T05:16:28.299Z,93.60
2022-09-03T05:18:59.295Z,93.90
2022-09-03T05:21:29.948Z,93.50
2022-09-03T05:23:58.204Z,93.30
2022-09-03T05:26:28.002Z,93.40
2022-09-03T05:28:57.818Z,93.50
2022-09-03T05:31:28.308Z,93.30
2022-09-03T05:33:58.996Z,93.30
2022-09-03T05:36:30.954Z,93.20
2022-09-03T05:39:00.096Z,93.20
2022-09-03T05:41:29.996Z,93.00
2022-09-03T05:43:59.883Z,93.20
2022-09-03T05:46:31.694Z,93.00
2022-09-03T05:49:00.603Z,93.00
2022-09-03T05:51:31.520Z,92.70
2022-09-03T05:54:00.125Z,92.60
2022-09-03T05:56:30.104Z,92.50
2022-09-03T05:59:01.141Z,92.60
2022-09-03T06:01:31.075Z,92.60
2022-09-03T06:04:00.975Z,92.60
2022-09-03T06:06:33.311Z,92.50
2022-09-03T06:09:03.800Z,92.50
2022-09-03T06:11:34.808Z,92.50
2022-09-03T06:14:06.110Z,92.40
2022-09-03T06:16:35.955Z,92.30
2022-09-03T06:19:06.160Z,92.20
2022-09-03T06:21:35.930Z,92.10
2022-09-03T06:24:04.635Z,92.10
2022-09-03T06:26:32.911Z,91.70
2022-09-03T06:29:02.798Z,91.70
2022-09-03T06:31:30.986Z,91.60
2022-09-03T06:34:03.871Z,91.40
2022-09-03T06:36:32.787Z,91.10
2022-09-03T06:39:02.676Z,91.20
2022-09-03T06:41:35.430Z,91.10
2022-09-03T06:44:05.588Z,90.90
2022-09-03T06:46:38.880Z,90.80
2022-09-03T06:49:08.570Z,90.50
2022-09-03T06:51:37.820Z,90.10
2022-09-03T06:54:09.604Z,88.90
2022-09-03T06:56:40.781Z,87.30
2022-09-03T06:59:11.525Z,85.50
2022-09-03T07:01:43.744Z,85.50
2022-09-03T07:04:16.309Z,84.90
2022-09-03T07:06:45.400Z,85.00
2022-09-03T07:09:15.606Z,85.40
2022-09-03T07:11:48.582Z,85.60
2022-09-03T07:14:18.084Z,85.90
2022-09-03T07:16:47.093Z,84.90
2022-09-03T07:19:15.315Z,84.50
2022-09-03T07:21:49.136Z,83.40
2022-09-03T07:24:22.224Z,83.80
2022-09-03T07:26:50.914Z,83.90
2022-09-03T07:29:21.565Z,82.80
2022-09-03T07:31:52.554Z,81.50
2022-09-03T07:34:24.273Z,81.70
2022-09-03T07:36:54.065Z,80.40
2022-09-03T07:39:23.964Z,81.10
2022-09-03T07:41:52.335Z,80.70
2022-09-03T07:44:21.023Z,78.90
2022-09-03T07:46:50.906Z,77.10
2022-09-03T07:49:21.220Z,76.80
2022-09-03T07:51:52.964Z,76.80
2022-09-03T07:54:22.047Z,77.10
2022-09-03T07:56:51.766Z,75.60
2022-09-03T07:59:21.476Z,75.40
2022-09-03T08:01:51.004Z,75.10
2022-09-03T08:04:19.364Z,74.30
2022-09-03T08:06:48.242Z,75.20
2022-09-03T08:09:16.530Z,73.70
2022-09-03T08:11:45.330Z,74.70
2022-09-03T08:14:16.583Z,72.80
2022-09-03T08:16:47.411Z,72.50
2022-09-03T08:19:18.342Z,72.70
2022-09-03T08:21:47.157Z,71.60
2022-09-03T08:24:18.161Z,72.10
2022-09-03T08:26:51.353Z,71.50
2022-09-03T08:29:22.605Z,69.80
2022-09-03T08:31:51.172Z,69.70
2022-09-03T08:34:19.547Z,69.00
2022-09-03T08:36:48.836Z,69.20
2022-09-03T08:39:17.414Z,68.60
2022-09-03T08:42:21.949Z,68.50
2022-09-03T08:44:56.368Z,65.40
2022-09-03T08:47:28.647Z,64.00
2022-09-03T08:50:00.410Z,66.10
2022-09-03T08:52:33.146Z,65.60
2022-09-03T08:55:10.718Z,64.70
2022-09-03T08:57:46.637Z,62.70
2022-09-03T09:00:17.498Z,63.80
2022-09-03T09:03:01.076Z,64.30
2022-09-03T09:05:44.267Z,62.30
2022-09-03T09:08:20.041Z,63.10
2022-09-03T09:10:49.381Z,62.70
2022-09-03T09:13:28.198Z,61.00
2022-09-03T09:16:07.345Z,60.70
2022-09-03T09:18:49.919Z,62.40
2022-09-03T09:21:25.154Z,62.80
2022-09-03T09:24:02.781Z,63.40
2022-09-03T09:26:31.626Z,62.30
2022-09-03T09:29:03.772Z,62.20
2022-09-03T09:31:35.735Z,63.60
2022-09-03T09:34:07.068Z,62.90
2022-09-03T09:36:44.101Z,62.10
2022-09-03T09:39:16.020Z,62.40
2022-09-03T09:41:45.211Z,60.40
2022-09-03T09:44:21.413Z,61.40
2022-09-03T09:46:54.825Z,62.00
2022-09-03T09:49:32.940Z,61.50
2022-09-03T09:52:08.726Z,62.10
2022-09-03T09:54:37.072Z,58.30
2022-09-03T09:57:07.606Z,59.30
2022-09-03T09:59:38.010Z,59.70
2022-09-03T10:02:13.781Z,58.70
2022-09-03T10:04:51.073Z,58.80
2022-09-03T10:07:25.156Z,59.90
2022-09-03T10:10:01.837Z,60.40
2022-09-03T10:12:35.946Z,60.20
2022-09-03T10:15:17.970Z,59.40
2022-09-03T10:17:56.578Z,58.90
2022-09-03T10:20:32.649Z,59.20
2022-09-03T10:23:14.903Z,59.20
2022-09-03T10:25:53.610Z,59.40
2022-09-03T10:28:24.684Z,57.60
2022-09-03T10:31:07.190Z,59.10
2022-09-03T10:33:44.442Z,59.90
2022-09-03T10:36:20.088Z,59.50
2022-09-03T10:38:54.673Z,58.90
2022-09-03T10:41:36.292Z,59.00
2022-09-03T10:44:21.068Z,58.30
2022-09-03T10:47:02.999Z,58.00
2022-09-03T10:49:49.693Z,56.90
2022-09-03T10:52:27.226Z,58.10
2022-09-03T10:55:17.029Z,57.30
2022-09-03T10:57:55.661Z,56.20
2022-09-03T11:00:24.370Z,56.40
2022-09-03T11:03:22.674Z,57.10
2022-09-03T11:06:02.360Z,57.00
2022-09-03T11:08:35.573Z,54.80
2022-09-03T11:11:13.685Z,55.00
2022-09-03T11:13:47.645Z,55.80
2022-09-03T11:16:20.059Z,56.40
2022-09-03T11:18:52.836Z,55.10
2022-09-03T11:21:26.134Z,54.80
2022-09-03T11:24:06.676Z,55.00
2022-09-03T11:26:36.261Z,54.70
2022-09-03T11:29:13.866Z,53.70
2022-09-03T11:31:53.253Z,53.20
2022-09-03T11:34:33.228Z,54.50
2022-09-03T11:37:19.549Z,54.90
2022-09-03T11:39:56.486Z,54.80
2022-09-03T11:42:30.835Z,54.10
2022-09-03T11:45:15.429Z,55.00
2022-09-03T11:47:45.343Z,53.10
2022-09-03T11:50:21.322Z,53.50
2022-09-03T11:52:53.398Z,54.00
2022-09-03T11:55:37.530Z,54.50
2022-09-03T11:58:18.738Z,54.30
2022-09-03T12:00:47.109Z,54.30
2022-09-03T12:03:18.061Z,54.30
2022-09-03T12:05:54.919Z,54.30
2022-09-03T12:08:56.930Z,54.10
2022-09-03T12:11:46.163Z,52.30
2022-09-03T12:14:21.869Z,52.00
2022-09-03T12:17:07.981Z,52.30
2022-09-03T12:19:41.981Z,52.50
2022-09-03T12:22:15.103Z,52.30
2022-09-03T12:24:45.118Z,51.90
2022-09-03T12:27:22.753Z,52.40
2022-09-03T12:29:59.983Z,51.90
2022-09-03T12:32:32.450Z,52.30
2022-09-03T12:35:13.492Z,52.10
2022-09-03T12:40:33.248Z,51.50
2022-09-03T12:46:13.302Z,48.80
2022-09-03T12:51:52.324Z,51.20
2022-09-03T12:54:23.142Z,51.60
2022-09-03T12:56:57.686Z,51.40
2022-09-03T12:59:30.867Z,51.20
2022-09-03T13:02:05.585Z,49.00
2022-09-03T13:04:37.245Z,49.70
2022-09-03T13:07:09.277Z,50.10
2022-09-03T13:09:41.121Z,49.60
2022-09-03T13:12:22.903Z,49.90
2022-09-03T13:14:52.979Z,50.70
2022-09-03T13:17:35.539Z,49.80
2022-09-03T13:20:45.742Z,48.40
2022-09-03T13:23:32.730Z,48.60
2022-09-03T13:26:09.154Z,49.80
2022-09-03T13:28:55.690Z,47.60
2022-09-03T13:31:32.511Z,47.10
2022-09-03T13:34:06.308Z,47.30
2022-09-03T13:36:43.926Z,47.70
2022-09-03T13:39:26.035Z,47.50
2022-09-03T13:41:59.628Z,47.70
2022-09-03T13:44:42.553Z,47.10
2022-09-03T13:47:25.757Z,46.60
2022-09-03T13:50:20.764Z,46.20
2022-09-03T13:52:57.407Z,46.80
2022-09-03T13:55:33.565Z,47.10
2022-09-03T13:58:06.961Z,46.20
2022-09-03T14:00:42.173Z,46.50
2022-09-03T14:03:18.424Z,47.20
2022-09-03T14:06:06.533Z,48.30
2022-09-03T14:08:54.317Z,48.80
2022-09-03T14:11:32.085Z,47.60
2022-09-03T14:14:16.310Z,48.50
2022-09-03T14:16:51.327Z,48.10
2022-09-03T14:19:33.999Z,48.00
2022-09-03T14:22:08.314Z,48.80
2022-09-03T14:24:45.827Z,48.70
2022-09-03T14:27:14.624Z,48.20
2022-09-03T14:29:54.351Z,47.90
2022-09-03T14:32:31.535Z,47.90
2022-09-03T14:35:33.281Z,48.90
2022-09-03T14:38:31.352Z,49.10
2022-09-03T14:41:06.926Z,49.40
2022-09-03T14:44:07.730Z,50.30
2022-09-03T14:46:50.224Z,50.40
2022-09-03T14:49:35.909Z,50.60
2022-09-03T14:52:17.453Z,50.50
2022-09-03T14:55:03.450Z,50.50
2022-09-03T14:58:04.715Z,50.50
2022-09-03T15:00:37.911Z,49.30
2022-09-03T15:03:40.179Z,49.80
2022-09-03T15:06:30.712Z,48.50
2022-09-03T15:09:39.124Z,48.90
2022-09-03T15:12:17.549Z,49.30
2022-09-03T15:14:53.751Z,49.10
2022-09-03T15:20:35.742Z,51.20
2022-09-03T15:23:25.736Z,51.60
2022-09-03T15:26:25.751Z,51.20
2022-09-03T15:29:22.073Z,51.40
2022-09-03T15:31:59.076Z,51.70
2022-09-03T15:34:43.910Z,52.20
2022-09-03T15:37:18.362Z,51.90
2022-09-03T15:39:48.596Z,51.70
2022-09-03T15:42:24.109Z,51.10
2022-09-03T15:44:55.351Z,50.90
2022-09-03T15:47:51.762Z,51.00
2022-09-03T15:50:30.971Z,51.00
2022-09-03T15:53:04.934Z,51.60
2022-09-03T15:55:37.061Z,53.00
2022-09-03T15:58:14.335Z,53.40
2022-09-03T16:00:54.163Z,53.80
2022-09-03T16:03:36.068Z,54.60
2022-09-03T16:06:10.975Z,54.60
2022-09-03T16:08:47.805Z,55.00
2022-09-03T16:11:22.981Z,55.80
2022-09-03T16:14:02.874Z,56.40
2022-09-03T16:16:49.057Z,56.50
2022-09-03T16:19:19.423Z,57.10
2022-09-03T16:21:55.809Z,56.70
2022-09-03T16:24:27.029Z,57.50
2022-09-03T16:27:01.141Z,57.60
2022-09-03T16:29:32.491Z,57.50
2022-09-03T16:32:14.024Z,57.80
2022-09-03T16:34:55.590Z,58.70
2022-09-03T16:37:30.028Z,58.10
2022-09-03T16:40:08.959Z,59.30
2022-09-03T16:42:45.615Z,59.40
2022-09-03T16:45:27.307Z,59.60
2022-09-03T16:48:12.178Z,60.20
2022-09-03T16:50:53.125Z,60.50
2022-09-03T16:53:29.626Z,60.30
2022-09-03T16:56:11.737Z,61.00
2022-09-03T16:58:50.547Z,60.90
2022-09-03T17:01:34.691Z,61.90
2022-09-03T17:04:30.173Z,61.70
2022-09-03T17:07:14.366Z,61.40
2022-09-03T17:09:56.593Z,61.40
2022-09-03T17:12:34.148Z,61.70
2022-09-03T17:15:24.765Z,62.60
2022-09-03T17:18:12.028Z,63.90
2022-09-03T17:20:50.800Z,63.80
2022-09-03T17:23:40.968Z,64.70
2022-09-03T17:26:13.650Z,64.80
2022-09-03T17:28:59.163Z,65.10
2022-09-03T17:31:41.640Z,66.00
2022-09-03T17:34:26.705Z,65.90
2022-09-03T17:37:05.802Z,65.90
2022-09-03T17:40:08.736Z,65.80
2022-09-03T17:42:50.560Z,66.00
2022-09-03T17:45:34.100Z,67.60
2022-09-03T17:48:20.999Z,67.60
2022-09-03T17:50:56.476Z,68.80
2022-09-03T17:53:31.699Z,70.30
2022-09-03T17:56:03.614Z,70.10
2022-09-03T17:58:36.326Z,70.80
2022-09-03T18:01:14.201Z,71.10
2022-09-03T18:03:48.405Z,72.60
2022-09-03T18:06:29.249Z,72.80
2022-09-03T18:09:01.325Z,74.70
2022-09-03T18:11:34.813Z,74.00
2022-09-03T18:14:12.598Z,74.40
2022-09-03T18:16:49.906Z,74.00
2022-09-03T18:19:31.809Z,75.80
2022-09-03T18:22:22.466Z,76.10
2022-09-03T18:25:13.801Z,76.90
2022-09-03T18:28:03.113Z,77.60
2022-09-03T18:30:48.614Z,78.00
2022-09-03T18:33:39.384Z,78.70
2022-09-03T18:36:25.121Z,79.40
2022-09-03T18:39:15.765Z,81.80
2022-09-03T18:42:18.978Z,81.70
2022-09-03T18:45:24.054Z,82.10
2022-09-03T18:48:22.452Z,82.10
2022-09-03T18:51:14.240Z,82.30
2022-09-03T18:54:09.284Z,83.80
2022-09-03T18:57:01.615Z,83.70
2022-09-03T19:00:17.242Z,84.40
2022-09-03T19:03:15.732Z,85.30
2022-09-03T19:06:16.466Z,85.70
2022-09-03T19:09:08.003Z,87.40
2022-09-03T19:12:00.678Z,87.60
2022-09-03T19:14:54.550Z,87.40
2022-09-03T19:17:51.589Z,87.30
2022-09-03T19:20:44.114Z,87.60
2022-09-03T19:23:29.628Z,89.00
2022-09-03T19:26:24.349Z,89.00
2022-09-03T19:29:20.933Z,89.30
2022-09-03T19:32:12.195Z,88.70
2022-09-03T19:35:20.212Z,89.00
2022-09-03T19:38:16.600Z,89.50
2022-09-03T19:41:17.950Z,89.90
2022-09-03T19:44:19.105Z,90.50
2022-09-03T19:47:09.293Z,90.40
2022-09-03T19:50:10.122Z,90.60
2022-09-03T19:53:03.407Z,90.40
2022-09-03T19:55:52.822Z,90.90
2022-09-03T19:58:43.920Z,90.60
2022-09-03T20:01:32.835Z,90.20
2022-09-03T20:04:22.630Z,89.40
2022-09-03T20:07:07.947Z,88.70
2022-09-03T20:09:58.921Z,88.50
2022-09-03T20:12:31.100Z,88.30
2022-09-03T20:14:59.201Z,88.50
2022-09-03T20:17:39.423Z,88.80
2022-09-03T20:20:25.145Z,88.70
2022-09-03T20:23:15.826Z,88.40
2022-09-03T20:26:07.270Z,88.60
2022-09-03T20:28:57.501Z,88.90
2022-09-03T20:31:30.247Z,88.90
2022-09-03T20:34:10.531Z,89.50
2022-09-03T20:36:48.799Z,89.50
2022-09-03T20:39:42.742Z,90.00
2022-09-03T20:42:21.988Z,90.20
2022-09-03T20:44:59.639Z,90.20
2022-09-03T20:48:01.323Z,90.20
2022-09-03T20:50:47.889Z,90.20
2022-09-03T20:53:50.152Z,90.40
2022-09-03T20:56:26.541Z,90.40
2022-09-03T20:59:03.053Z,90.30
2022-09-03T21:01:39.146Z,90.50
2022-09-03T21:04:21.866Z,90.50
2022-09-03T21:06:56.646Z,90.80
2022-09-03T21:09:33.522Z,90.70
2022-09-03T21:12:07.020Z,90.90
2022-09-03T21:14:39.627Z,90.70
2022-09-03T21:17:27.685Z,91.00
2022-09-03T21:20:08.998Z,91.00
2022-09-03T21:22:52.843Z,91.00
2022-09-03T21:25:25.295Z,91.00
2022-09-03T21:28:00.343Z,91.00
2022-09-03T21:30:30.891Z,91.00
2022-09-03T21:33:05.644Z,91.10
2022-09-03T21:35:37.426Z,91.00
2022-09-03T21:38:09.716Z,91.10
2022-09-03T21:40:42.474Z,91.00
2022-09-03T21:43:20.418Z,91.00
2022-09-03T21:45:58.340Z,91.50
2022-09-03T21:48:35.730Z,91.50
2022-09-03T21:51:08.235Z,91.30
2022-09-03T21:53:45.864Z,91.50
2022-09-03T21:56:44.919Z,91.40
2022-09-03T21:59:22.094Z,91.60
2022-09-03T22:01:59.058Z,91.60
2022-09-03T22:04:27.557Z,91.60
2022-09-03T22:07:05.564Z,91.70
2022-09-03T22:09:42.837Z,91.80
2022-09-03T22:12:17.928Z,92.00
2022-09-03T22:14:49.098Z,91.90
2022-09-03T22:17:23.990Z,92.00
2022-09-03T22:19:52.289Z,92.10
2022-09-03T22:22:28.910Z,92.00
2022-09-03T22:25:06.929Z,92.10
2022-09-03T22:27:47.310Z,92.20
2022-09-03T22:30:21.123Z,92.40
2022-09-03T22:32:58.395Z,92.40
2022-09-03T22:36:03.524Z,92.50
2022-09-03T22:38:44.002Z,92.60
2022-09-03T22:41:25.424Z,92.70
2022-09-03T22:44:04.158Z,92.80
2022-09-03T22:46:39.561Z,92.80
2022-09-03T22:49:22.422Z,93.00
2022-09-03T22:52:07.854Z,92.80
2022-09-03T22:54:47.313Z,92.80
2022-09-03T22:57:19.010Z,92.90
2022-09-03T22:59:56.356Z,92.80
2022-09-03T23:02:28.876Z,93.10
2022-09-03T23:05:04.747Z,93.00
2022-09-03T23:07:40.218Z,93.00
2022-09-03T23:10:12.754Z,93.10
2022-09-03T23:13:02.541Z,93.40
2022-09-03T23:15:32.283Z,93.30
2022-09-03T23:18:06.678Z,93.20
2022-09-03T23:20:37.702Z,93.30
2022-09-03T23:23:15.307Z,93.30
2022-09-03T23:25:46.473Z,93.40
2022-09-03T23:28:24.217Z,93.50
2022-09-03T23:30:52.696Z,93.80
2022-09-03T23:33:20.790Z,93.70
2022-09-03T23:35:58.153Z,93.70
2022-09-03T23:38:35.060Z,93.70
2022-09-03T23:41:08.318Z,93.80
2022-09-03T23:44:02.131Z,93.90
2022-09-03T23:46:37.624Z,93.90
2022-09-03T23:49:33.560Z,93.90
2022-09-03T23:52:30.124Z,94.00
2022-09-03T23:55:05.189Z,93.90
2022-09-03T23:57:39.742Z,94.10
